MMGLMMPR

Guest
Details From MMGL - Don Miguel Hidalgo Y Costilla Intl
To MMPR - LICENCIADO GUSTAVO DIAZ ORDAZ INTL
Flight Number -
Tags generated
Created
Modified
Stats Distance 110 nm / 203 km
Max Altitude 10,700 ft / 3,261 m
Waypoints 3
Social Downloads 2
Likes 0
Share VATSIM

Download

Looking for another format? Having issues loading an existing format? Contact us
Advertisement - Login to hide

Notes

Basic altitude profile: - Ascent Rate: 2500ft/min - Ascent Speed: 250kts - Cruise Altitude: 35000ft - Cruise Speed: 420kts - Descent Rate: 1500ft/min - Descent Speed: 250kts Options: - Use NATs: no - Use PACOTS: no - Use low airways: yes - Use high airways: no

Route

MMGL COMAL MMPR

ID Type Via Altitude Latitude Longitude Leg Dist Tot Dist Heading (true) Name
O MMGL APT - 0 ft / 0 m 20.52458˚ -103.30882˚ - 0 nm - Don Miguel Hidalgo Y Costilla Intl
COMAL FIX - 10,700 ft / 3,261 m 20.60098˚ -104.28408˚ 55 nm 55 nm 275° / 275° -
O MMPR APT - 0 ft / 0 m 20.68007˚ -105.25415˚ 54 nm 109 nm 275° / 275° LICENCIADO GUSTAVO DIAZ ORDAZ INTL

Altitude Profile

Advertisement - Login to hide

MMGL

Details ICAO MMGL (GDL)
Name Don Miguel Hidalgo Y Costilla Intl
Region Mexico
Timezone America/Mexico_City (UTC-5.0)
Stats Elevation 5,016 ft / 1,529 m (AMSL)
Location 20.524575° -103.308825°
Runways 2
Magnetic Variation 6.202° E

METAR

MMGL 271453Z 00000KT 7SM SKC 24/14 A3011 RMK SLP046 52017 952 HZY

Decode

TAF

Not found

Departure Runways

ID Width Length Bearing (true) Bearing (mag) Surface Threshold Offset Overrun Length
02 94 ft / 29 m 6,031 ft / 1,838 m 30.09° 23.89° Asphalt 0 ft / 0 m 0 ft / 0 m
10 197 ft / 60 m 13,151 ft / 4,008 m 114.12° 107.92° Concrete 0 ft / 0 m 197 ft / 60 m
20 94 ft / 29 m 6,031 ft / 1,838 m 210.10° 203.90° Asphalt 0 ft / 0 m 0 ft / 0 m
28 197 ft / 60 m 13,151 ft / 4,008 m 294.14° 287.94° Concrete 0 ft / 0 m 197 ft / 60 m

MMPR

Details ICAO MMPR (PVR)
Name LICENCIADO GUSTAVO DIAZ ORDAZ INTL
Region Mexico
Timezone America/Mexico_City (UTC-5.0)
Stats Elevation 23 ft / 7 m (AMSL)
Location 20.680069° -105.254153°
Runways 1
Magnetic Variation 6.846° E

METAR

MMPR 271449Z 02004KT 12SM SKC 28/23 A2982 RMK SLP096 52015 956 CU AND SC

Decode

TAF

Not found

Destination Runways

ID Width Length Bearing (true) Bearing (mag) Surface Threshold Offset Overrun Length
04 148 ft / 45 m 10,221 ft / 3,116 m 47.05° 40.20° Asphalt 0 ft / 0 m 185 ft / 56 m
22 148 ft / 45 m 10,221 ft / 3,116 m 227.06° 220.21° Asphalt 0 ft / 0 m 185 ft / 56 m

Popular Alternatives